Time;durP1;ratioP1;P1;durP2;ratioP2;P2;SDS_P1;SDS_P2;PMS_P1;PMS_P2;Temp;Humidity;BMP_temperature;BMP_pressure;BME280_temperature;BME280_humidity;BME280_pressure;Samples;Min_cycle;Max_cycle;Signal;HPM_P1;HPM_P2
2023/07/01 00:04:13;;;;;;;6.3;3.8;;;;;;;19.63;71.78;;;;;
2023/07/01 00:15:13;;;;;;;6.3;3.8;;;;;;;19.59;71.52;;;;;
2023/07/01 00:25:13;;;;;;;5.6;3.7;;;;;;;19.48;72.15;;;;;
2023/07/01 00:36:13;;;;;;;5.6;3.7;;;;;;;19.53;71.72;;;;;
2023/07/01 00:46:13;;;;;;;5.6;3.7;;;;;;;19.52;71.34;;;;;
2023/07/01 00:56:13;;;;;;;6;3.8;;;;;;;19.37;72.85;;;;;
2023/07/01 01:06:13;;;;;;;6;3.8;;;;;;;19.17;73.06;;;;;
2023/07/01 01:16:13;;;;;;;6;3.8;;;;;;;19.1;72.75;;;;;
2023/07/01 01:26:13;;;;;;;8.3;4.7;;;;;;;18.88;75.07;;;;;
2023/07/01 01:36:13;;;;;;;8.3;4.7;;;;;;;18.86;75.02;;;;;
2023/07/01 01:47:13;;;;;;;8.3;4.7;;;;;;;18.85;75.18;;;;;
2023/07/01 01:57:13;;;;;;;7;4.8;;;;;;;18.86;74.83;;;;;
2023/07/01 02:07:13;;;;;;;7;4.8;;;;;;;18.84;75.24;;;;;
2023/07/01 02:17:13;;;;;;;7;4.8;;;;;;;18.83;75.07;;;;;
2023/07/01 02:27:13;;;;;;;8.3;4.9;;;;;;;18.77;76.75;;;;;
2023/07/01 02:38:14;;;;;;;8.3;4.9;;;;;;;18.78;76.55;;;;;
2023/07/01 02:49:13;;;;;;;8.3;4.9;;;;;;;18.75;76.7;;;;;
2023/07/01 02:59:13;;;;;;;7.8;5.4;;;;;;;18.74;77.78;;;;;
2023/07/01 03:09:14;;;;;;;7.8;5.4;;;;;;;18.52;81.11;;;;;
2023/07/01 03:20:22;;;;;;;7.8;5.4;;;;;;;18.54;81.11;;;;;
2023/07/01 03:31:13;;;;;;;9;5.8;;;;;;;18.5;81.85;;;;;
2023/07/01 03:42:13;;;;;;;9;5.8;;;;;;;18.35;82.98;;;;;
2023/07/01 03:52:13;;;;;;;8.3;6.2;;;;;;;18.25;84.19;;;;;
2023/07/01 04:02:14;;;;;;;8.3;6.2;;;;;;;18.26;84.58;;;;;
2023/07/01 04:12:13;;;;;;;8.3;6.2;;;;;;;18.09;86.35;;;;;
2023/07/01 04:22:13;;;;;;;8.6;6;;;;;;;18.06;86.56;;;;;
2023/07/01 04:32:13;;;;;;;8.6;6;;;;;;;18.23;86.08;;;;;
2023/07/01 04:43:13;;;;;;;8.6;6;;;;;;;18.46;85.2;;;;;
2023/07/01 04:54:13;;;;;;;8.3;5.7;;;;;;;18.33;85.83;;;;;
2023/07/01 05:04:13;;;;;;;8.3;5.7;;;;;;;18.51;86.62;;;;;
2023/07/01 05:14:13;;;;;;;8.3;5.7;;;;;;;18.8;85.37;;;;;
2023/07/01 05:25:13;;;;;;;8.5;6.6;;;;;;;18.81;85.07;;;;;
2023/07/01 05:35:13;;;;;;;8.5;6.6;;;;;;;18.73;85.27;;;;;
2023/07/01 05:45:13;;;;;;;8.5;6.6;;;;;;;18.51;86.22;;;;;
2023/07/01 05:56:13;;;;;;;9;6.3;;;;;;;18.43;86.9;;;;;
2023/07/01 06:06:13;;;;;;;9;6.3;;;;;;;18.6;86.51;;;;;
2023/07/01 06:17:13;;;;;;;9;6.3;;;;;;;18.84;85.37;;;;;
2023/07/01 06:27:13;;;;;;;9.6;6.1;;;;;;;18.66;85.95;;;;;
2023/07/01 06:37:13;;;;;;;9.6;6.1;;;;;;;18.76;85.5;;;;;
2023/07/01 06:47:13;;;;;;;9.6;6.1;;;;;;;18.71;86.42;;;;;
2023/07/01 06:57:13;;;;;;;8.4;6.2;;;;;;;18.92;86.03;;;;;
2023/07/01 07:07:13;;;;;;;8.4;6.2;;;;;;;18.9;86.97;;;;;
2023/07/01 07:18:13;;;;;;;8.4;6.2;;;;;;;18.91;86.43;;;;;
2023/07/01 07:29:13;;;;;;;8.2;5.7;;;;;;;19.11;85.77;;;;;
2023/07/01 07:39:13;;;;;;;8.2;5.7;;;;;;;19.08;86.24;;;;;
2023/07/01 07:49:13;;;;;;;8.2;5.7;;;;;;;19.31;84.55;;;;;
2023/07/01 07:59:13;;;;;;;8.7;5.9;;;;;;;19.62;85.42;;;;;
2023/07/01 08:10:13;;;;;;;8.7;5.9;;;;;;;19.8;84.73;;;;;
2023/07/01 08:20:13;;;;;;;8.7;5.9;;;;;;;19.93;83.75;;;;;
2023/07/01 08:30:14;;;;;;;8.9;6.7;;;;;;;19.95;83.31;;;;;
2023/07/01 08:41:13;;;;;;;8.9;6.7;;;;;;;20.07;81.87;;;;;
2023/07/01 08:51:14;;;;;;;8.3;5.4;;;;;;;20.3;82.3;;;;;
2023/07/01 09:02:15;;;;;;;8.3;5.4;;;;;;;20.31;82.25;;;;;
2023/07/01 09:12:13;;;;;;;8.3;5.4;;;;;;;20.06;82.3;;;;;
2023/07/01 09:23:13;;;;;;;7.9;5;;;;;;;20.35;82.58;;;;;
2023/07/01 09:34:14;;;;;;;7.9;5;;;;;;;20.94;81.09;;;;;
2023/07/01 09:45:13;;;;;;;7.9;5;;;;;;;21.61;79.49;;;;;
2023/07/01 09:55:13;;;;;;;7.6;5.2;;;;;;;22.49;77.19;;;;;
2023/07/01 10:06:13;;;;;;;7.6;5.2;;;;;;;23.31;73.86;;;;;
2023/07/01 10:16:13;;;;;;;7.6;5.2;;;;;;;23.32;71.82;;;;;
2023/07/01 10:27:13;;;;;;;7.5;4.7;;;;;;;24.56;70.75;;;;;
2023/07/01 10:37:14;;;;;;;7.5;4.7;;;;;;;24.82;66.58;;;;;
2023/07/01 10:47:14;;;;;;;7.5;4.7;;;;;;;25.16;63.74;;;;;
2023/07/01 10:58:14;;;;;;;6.8;4.5;;;;;;;25.45;63.99;;;;;
2023/07/01 11:08:14;;;;;;;6.8;4.5;;;;;;;25.81;62.73;;;;;
2023/07/01 11:18:14;;;;;;;6.8;4.5;;;;;;;25.37;64.47;;;;;
2023/07/01 11:28:14;;;;;;;8.3;5.7;;;;;;;25.74;62.41;;;;;
2023/07/01 11:39:14;;;;;;;8.3;5.7;;;;;;;25.82;63.31;;;;;
2023/07/01 11:49:14;;;;;;;8.3;5.7;;;;;;;26.73;60.74;;;;;
2023/07/01 11:59:14;;;;;;;7.6;5.9;;;;;;;26.79;60.33;;;;;
2023/07/01 12:09:14;;;;;;;7.6;5.9;;;;;;;27.03;60.66;;;;;
2023/07/01 12:20:14;;;;;;;7.6;5.9;;;;;;;26.7;58.97;;;;;
2023/07/01 12:30:14;;;;;;;9.3;6;;;;;;;26.15;58.5;;;;;
2023/07/01 12:40:14;;;;;;;9.3;6;;;;;;;26.74;59.12;;;;;
2023/07/01 12:51:14;;;;;;;9.3;6;;;;;;;26.61;61.81;;;;;
2023/07/01 13:01:14;;;;;;;9.9;6.2;;;;;;;26.02;61.79;;;;;
2023/07/01 13:12:14;;;;;;;9.9;6.2;;;;;;;27;58.87;;;;;
2023/07/01 13:22:14;;;;;;;9.3;7;;;;;;;27.19;57.63;;;;;
2023/07/01 13:32:14;;;;;;;9.3;7;;;;;;;27.76;56.29;;;;;
2023/07/01 13:43:14;;;;;;;9.3;7;;;;;;;27.14;58.94;;;;;
2023/07/01 13:53:14;;;;;;;8.9;7.3;;;;;;;26.86;58.45;;;;;
2023/07/01 14:04:14;;;;;;;8.9;7.3;;;;;;;27;59.14;;;;;
2023/07/01 14:14:19;;;;;;;8.9;7.3;;;;;;;27.24;58.73;;;;;
2023/07/01 14:25:14;;;;;;;9.6;7;;;;;;;28.05;54.81;;;;;
2023/07/01 14:36:14;;;;;;;9.6;7;;;;;;;27.61;57.56;;;;;
2023/07/01 14:46:14;;;;;;;9.6;7;;;;;;;27.08;58.19;;;;;
2023/07/01 14:56:14;;;;;;;10.7;8.1;;;;;;;26.63;58.45;;;;;
2023/07/01 15:06:14;;;;;;;10.7;8.1;;;;;;;27.41;59.2;;;;;
2023/07/01 15:16:14;;;;;;;10.7;8.1;;;;;;;27.03;58.69;;;;;
2023/07/01 15:26:14;;;;;;;10.3;8.3;;;;;;;30;51.16;;;;;
2023/07/01 15:37:14;;;;;;;10.3;8.3;;;;;;;30.72;49.04;;;;;
2023/07/01 15:48:14;;;;;;;10.3;8.3;;;;;;;32.32;47.83;;;;;
2023/07/01 15:59:14;;;;;;;14.5;12.2;;;;;;;31.25;46.17;;;;;
2023/07/01 16:09:14;;;;;;;14.5;12.2;;;;;;;31.88;46.75;;;;;
2023/07/01 16:19:15;;;;;;;14.5;12.2;;;;;;;30.39;49.15;;;;;
2023/07/01 16:29:14;;;;;;;15.7;12.8;;;;;;;28.36;56.47;;;;;
2023/07/01 16:40:14;;;;;;;15.7;12.8;;;;;;;28.04;58.82;;;;;
2023/07/01 16:50:16;;;;;;;15.7;12.8;;;;;;;28.46;57.36;;;;;
2023/07/01 17:00:14;;;;;;;9.2;6.3;;;;;;;29.13;54.12;;;;;
2023/07/01 17:11:14;;;;;;;9.2;6.3;;;;;;;27.44;58.92;;;;;
2023/07/01 17:21:14;;;;;;;9.2;6.3;;;;;;;26.7;61.52;;;;;
2023/07/01 17:31:14;;;;;;;9.6;6.7;;;;;;;25.46;64.94;;;;;
2023/07/01 17:41:14;;;;;;;9.6;6.7;;;;;;;25.37;66.22;;;;;
2023/07/01 17:51:14;;;;;;;9.6;6.7;;;;;;;27.06;60.36;;;;;
2023/07/01 18:01:14;;;;;;;10.4;7.3;;;;;;;26.38;61.7;;;;;
2023/07/01 18:11:14;;;;;;;10.4;7.3;;;;;;;24.97;65.86;;;;;
2023/07/01 18:22:14;;;;;;;11.3;9.1;;;;;;;23.35;70.95;;;;;
2023/07/01 18:32:14;;;;;;;11.3;9.1;;;;;;;22.86;72.44;;;;;
2023/07/01 18:42:14;;;;;;;11.3;9.1;;;;;;;22.02;77.22;;;;;
2023/07/01 18:52:14;;;;;;;12.4;10.3;;;;;;;21.65;78.87;;;;;
2023/07/01 19:03:14;;;;;;;12.4;10.3;;;;;;;21.28;80.09;;;;;
2023/07/01 19:14:14;;;;;;;12.4;10.3;;;;;;;20.98;81.26;;;;;
2023/07/01 19:24:15;;;;;;;14.1;11.1;;;;;;;20.7;82.31;;;;;
2023/07/01 19:34:14;;;;;;;14.1;11.1;;;;;;;20.55;82.32;;;;;
2023/07/01 19:44:14;;;;;;;14.1;11.1;;;;;;;20.41;82.67;;;;;
2023/07/01 19:55:14;;;;;;;16;13.2;;;;;;;20.27;82.89;;;;;
2023/07/01 20:05:14;;;;;;;16;13.2;;;;;;;20.14;83.4;;;;;
2023/07/01 20:15:14;;;;;;;16;13.2;;;;;;;20.13;83.39;;;;;
2023/07/01 20:25:14;;;;;;;18.2;14.3;;;;;;;20.11;83.13;;;;;
2023/07/01 20:36:14;;;;;;;18.2;14.3;;;;;;;19.89;84.06;;;;;
2023/07/01 20:47:14;;;;;;;18.2;14.3;;;;;;;19.78;84.32;;;;;
2023/07/01 20:57:14;;;;;;;18.2;14.9;;;;;;;19.76;84.32;;;;;
2023/07/01 21:07:14;;;;;;;18.2;14.9;;;;;;;19.68;84.67;;;;;
2023/07/01 21:18:14;;;;;;;18.2;14.9;;;;;;;19.57;85.17;;;;;
2023/07/01 21:28:14;;;;;;;16;13.8;;;;;;;19.62;84.8;;;;;
2023/07/01 21:38:14;;;;;;;16;13.8;;;;;;;19.58;84.64;;;;;
2023/07/01 21:48:14;;;;;;;16;13.8;;;;;;;19.55;84.57;;;;;
2023/07/01 21:59:14;;;;;;;16.6;14.1;;;;;;;19.34;85.95;;;;;
2023/07/01 22:10:14;;;;;;;16.6;14.1;;;;;;;19.21;87.27;;;;;
2023/07/01 22:21:14;;;;;;;16.6;14.1;;;;;;;19.16;88.17;;;;;
2023/07/01 22:32:14;;;;;;;23;17.8;;;;;;;19.1;88.44;;;;;
2023/07/01 22:43:14;;;;;;;23;17.8;;;;;;;19.32;87.95;;;;;
2023/07/01 22:53:14;;;;;;;19.6;16.9;;;;;;;19.44;87.33;;;;;
2023/07/01 23:04:14;;;;;;;19.6;16.9;;;;;;;19.48;87.34;;;;;
2023/07/01 23:14:14;;;;;;;19.6;16.9;;;;;;;19.45;87.76;;;;;
2023/07/01 23:25:14;;;;;;;23.1;19.8;;;;;;;19.51;87.34;;;;;
2023/07/01 23:36:14;;;;;;;23.1;19.8;;;;;;;19.39;87.16;;;;;
2023/07/01 23:46:14;;;;;;;23.1;19.8;;;;;;;19.26;86.96;;;;;
2023/07/01 23:56:14;;;;;;;19.6;16.5;;;;;;;19.11;87.25;;;;;
